Time;durP1;ratioP1;P1;durP2;ratioP2;P2;SDS_P1;SDS_P2;PMS_P1;PMS_P2;Temp;Humidity;BMP_temperature;BMP_pressure;BME280_temperature;BME280_humidity;BME280_pressure;Samples;Min_cycle;Max_cycle;Signal;HPM_P1;HPM_P2
2021/10/28 00:14:08;;;;;;;11.43;5.15;;;10.40;99.90;;;;;;5093550;28;20047;-77
2021/10/28 00:16:34;;;;;;;8.07;4.50;;;10.30;99.90;;;;;;5093087;28;20035;-77
2021/10/28 00:19:03;;;;;;;12.85;5.50;;;10.30;99.90;;;;;;5093185;28;20384;-77
2021/10/28 00:21:31;;;;;;;9.13;4.68;;;10.40;99.90;;;;;;5093137;28;20024;-77
2021/10/28 00:24:01;;;;;;;14.38;5.15;;;10.40;99.90;;;;;;5074764;28;20073;-77
2021/10/28 00:26:28;;;;;;;11.25;4.90;;;10.30;99.90;;;;;;5093060;28;20366;-77
2021/10/28 00:28:58;;;;;;;11.48;5.28;;;10.30;99.90;;;;;;5093015;28;20031;-77
2021/10/28 00:31:31;;;;;;;12.82;5.78;;;10.30;99.90;;;;;;5091783;28;20023;-77
2021/10/28 00:33:58;;;;;;;11.68;5.43;;;10.30;99.90;;;;;;5091981;28;20426;-77
2021/10/28 00:36:26;;;;;;;11.45;4.65;;;10.30;99.90;;;;;;5078653;28;20485;-77
2021/10/28 00:38:53;;;;;;;12.18;5.00;;;10.20;99.90;;;;;;5078752;28;20028;-78
2021/10/28 00:41:19;;;;;;;11.73;4.93;;;10.20;99.90;;;;;;5097110;28;20056;-77
2021/10/28 00:43:48;;;;;;;10.38;4.43;;;10.20;99.90;;;;;;5097124;28;20027;-77
2021/10/28 00:46:15;;;;;;;;;;;10.20;99.90;;;;;;5094720;28;20028;-77
2021/10/28 00:48:41;;;;;;;12.40;5.30;;;10.30;99.90;;;;;;5096748;28;19904;-77
2021/10/28 00:51:07;;;;;;;10.02;5.38;;;10.30;99.90;;;;;;5095555;28;20032;-77
2021/10/28 00:53:34;;;;;;;11.70;5.65;;;10.20;99.90;;;;;;5095450;28;20122;-77
2021/10/28 00:56:02;;;;;;;10.02;4.75;;;10.20;99.90;;;;;;5096112;28;20028;-77
2021/10/28 00:58:30;;;;;;;12.18;6.15;;;10.20;99.90;;;;;;5096461;28;20527;-77
2021/10/28 01:00:56;;;;;;;11.45;5.00;;;10.20;99.90;;;;;;5096292;28;20020;-77
2021/10/28 01:03:22;;;;;;;11.15;6.05;;;10.20;99.90;;;;;;5078327;28;20069;-78
2021/10/28 01:05:48;;;;;;;12.80;5.35;;;10.20;99.90;;;;;;5096145;28;20389;-78
2021/10/28 01:08:17;;;;;;;23.08;4.80;;;10.10;99.90;;;;;;5095301;28;20016;-78
2021/10/28 01:10:47;;;;;;;;;;;10.10;99.90;;;;;;5096806;28;20016;-77
2021/10/28 01:13:14;;;;;;;12.63;5.20;;;10.00;99.90;;;;;;5095199;28;20089;-76
2021/10/28 01:15:40;;;;;;;12.32;4.47;;;10.00;99.90;;;;;;5095839;28;20452;-77
2021/10/28 01:18:10;;;;;;;13.10;5.35;;;9.90;99.90;;;;;;5079128;28;20055;-77
2021/10/28 01:20:38;;;;;;;13.85;5.05;;;10.00;99.90;;;;;;5095970;28;20039;-77
2021/10/28 01:23:05;;;;;;;13.20;5.28;;;9.90;99.90;;;;;;5094862;28;20021;-78
2021/10/28 01:25:31;;;;;;;10.85;5.20;;;9.90;99.90;;;;;;5094162;28;20028;-77
2021/10/28 01:27:58;;;;;;;12.88;5.60;;;10.00;99.90;;;;;;5094872;28;20020;-77
2021/10/28 01:30:24;;;;;;;10.80;5.05;;;10.00;99.90;;;;;;5094735;28;20024;-78
2021/10/28 01:32:50;;;;;;;11.65;4.65;;;9.90;99.90;;;;;;5094773;28;20032;-78
2021/10/28 01:35:15;;;;;;;10.45;5.25;;;9.90;99.90;;;;;;5095582;28;20024;-77
2021/10/28 01:37:44;;;;;;;14.85;5.75;;;9.90;99.90;;;;;;5095920;28;20366;-78
2021/10/28 01:40:10;;;;;;;;;;;9.90;99.90;;;;;;5095715;28;20035;-77
2021/10/28 01:42:39;;;;;;;11.82;4.82;;;9.90;99.90;;;;;;5096408;28;20308;-77
2021/10/28 01:45:06;;;;;;;12.90;5.70;;;9.80;99.90;;;;;;5095483;28;20039;-78
2021/10/28 01:47:32;;;;;;;11.27;4.43;;;9.80;99.90;;;;;;5094949;28;20042;-77
2021/10/28 01:49:58;;;;;;;10.38;5.03;;;9.80;99.90;;;;;;5095556;28;20024;-77
2021/10/28 01:52:25;;;;;;;8.98;4.32;;;9.70;99.90;;;;;;5095545;28;20065;-77
2021/10/28 01:54:51;;;;;;;11.07;4.60;;;9.70;99.90;;;;;;5095332;28;20024;-77
2021/10/28 01:57:21;;;;;;;14.63;5.05;;;9.70;99.90;;;;;;5095602;28;20035;-77
2021/10/28 01:59:48;;;;;;;15.57;5.80;;;9.60;99.90;;;;;;5095361;28;20031;-78
2021/10/28 02:02:14;;;;;;;13.73;4.53;;;9.60;99.90;;;;;;5094215;28;20070;-78
2021/10/28 02:04:40;;;;;;;9.63;4.55;;;9.60;99.90;;;;;;5085081;28;20432;-77
2021/10/28 02:07:06;;;;;;;7.70;4.03;;;9.60;99.90;;;;;;5077228;28;20021;-77
2021/10/28 02:09:32;;;;;;;13.05;4.28;;;9.60;99.90;;;;;;5077210;28;20016;-77
2021/10/28 02:11:59;;;;;;;10.27;4.35;;;9.60;99.90;;;;;;5095171;28;20035;-77
2021/10/28 02:14:25;;;;;;;10.57;4.40;;;9.60;99.90;;;;;;5094832;28;20107;-77
2021/10/28 02:16:52;;;;;;;9.05;4.30;;;9.50;99.90;;;;;;5093760;28;20473;-77
2021/10/28 02:19:17;;;;;;;10.93;4.93;;;9.50;99.90;;;;;;5093289;28;20032;-77
2021/10/28 02:21:43;;;;;;;12.77;4.32;;;9.50;99.90;;;;;;5094845;28;20417;-77
2021/10/28 02:24:09;;;;;;;12.90;4.80;;;9.40;99.90;;;;;;5089648;28;20209;-77
2021/10/28 02:26:34;;;;;;;10.00;4.40;;;9.50;99.90;;;;;;5094684;28;20024;-78
2021/10/28 02:29:02;;;;;;;13.20;5.22;;;9.40;99.90;;;;;;5076690;28;20020;-78
2021/10/28 02:31:28;;;;;;;10.30;4.40;;;9.40;99.90;;;;;;5076567;28;20062;-77
2021/10/28 02:33:53;;;;;;;11.25;4.35;;;9.40;99.90;;;;;;5094415;28;20038;-76
2021/10/28 02:36:20;;;;;;;14.43;4.07;;;9.40;99.90;;;;;;5093224;28;20111;-77
2021/10/28 02:38:46;;;;;;;9.52;4.40;;;9.30;99.90;;;;;;5093013;28;20073;-77
2021/10/28 02:41:11;;;;;;;11.43;5.18;;;9.30;99.90;;;;;;5080647;28;20020;-77
2021/10/28 02:43:37;;;;;;;10.30;4.30;;;9.30;99.90;;;;;;5094782;28;20469;-77
2021/10/28 02:46:02;;;;;;;7.40;4.35;;;9.30;99.90;;;;;;5094458;28;20513;-77
2021/10/28 02:48:28;;;;;;;7.80;3.58;;;9.20;99.90;;;;;;5094540;28;20073;-77
2021/10/28 02:50:53;;;;;;;10.77;4.20;;;9.20;99.90;;;;;;5086741;28;20020;-76
2021/10/28 02:53:19;;;;;;;15.27;4.60;;;9.10;99.90;;;;;;5093074;28;20111;-76
2021/10/28 02:55:45;;;;;;;8.70;4.00;;;9.10;99.90;;;;;;5092642;28;20500;-77
2021/10/28 02:58:11;;;;;;;7.28;4.05;;;9.10;99.90;;;;;;5094161;28;20020;-77
2021/10/28 03:00:37;;;;;;;11.50;3.90;;;9.00;99.90;;;;;;5093823;28;20032;-77
2021/10/28 03:03:03;;;;;;;7.57;3.42;;;9.00;99.90;;;;;;5076350;28;20479;-77
2021/10/28 03:05:29;;;;;;;7.70;3.65;;;9.00;99.90;;;;;;5094057;28;20024;-76
2021/10/28 03:07:58;;;;;;;9.63;3.50;;;8.90;99.90;;;;;;5075869;28;20472;-76
2021/10/28 03:10:23;;;;;;;9.90;4.10;;;8.90;99.90;;;;;;5081992;28;20032;-77
2021/10/28 03:12:52;;;;;;;8.88;4.30;;;8.90;99.90;;;;;;5094151;28;20024;-74
2021/10/28 03:15:17;;;;;;;13.55;4.38;;;8.90;99.90;;;;;;5094144;28;20028;-74
2021/10/28 03:18:13;;;;;;;8.90;4.13;;;8.90;99.90;;;;;;5092847;28;20028;-74
2021/10/28 03:26:07;;;;;;;7.90;3.38;;;8.80;99.90;;;;;;5094377;28;20072;-75
2021/10/28 03:28:33;;;;;;;11.13;3.83;;;8.80;99.90;;;;;;5094151;28;20477;-79
2021/10/28 03:30:58;;;;;;;9.77;3.97;;;8.70;99.90;;;;;;5093552;28;20102;-75
2021/10/28 03:33:24;;;;;;;6.50;3.75;;;8.70;99.90;;;;;;5093906;28;20020;-75
2021/10/28 03:35:51;;;;;;;9.55;3.42;;;8.70;99.90;;;;;;5093648;28;20384;-74
2021/10/28 03:38:26;;;;;;;10.73;4.32;;;8.70;99.90;;;;;;5092322;28;20016;-75
2021/10/28 03:43:53;;;;;;;11.15;4.20;;;8.70;99.90;;;;;;5093902;28;20032;-74
2021/10/28 03:46:42;;;;;;;10.50;4.47;;;8.60;99.90;;;;;;5093460;28;20554;-75
2021/10/28 04:03:10;;;;;;;9.32;3.70;;;8.60;99.90;;;;;;5093307;28;20020;-74
2021/10/28 04:21:13;;;;;;;12.07;3.80;;;8.60;99.90;;;;;;5097674;28;20032;-75
2021/10/28 04:29:07;;;;;;;12.27;4.93;;;8.60;99.90;;;;;;5097378;28;20504;-75
2021/10/28 04:31:38;;;;;;;8.32;4.05;;;8.50;99.90;;;;;;5097118;28;20032;-74
2021/10/28 04:34:07;;;;;;;8.30;5.22;;;8.50;99.90;;;;;;5079890;28;20115;-74
2021/10/28 04:36:33;;;;;;;10.75;3.75;;;8.50;99.90;;;;;;5097564;28;20453;-75
2021/10/28 04:39:00;;;;;;;9.80;4.60;;;8.40;99.90;;;;;;5097139;28;20469;-75
2021/10/28 04:41:26;;;;;;;9.07;3.05;;;8.50;99.90;;;;;;5097203;28;20032;-74
2021/10/28 04:43:52;;;;;;;7.47;3.53;;;8.40;99.90;;;;;;5096633;28;20031;-75
2021/10/28 04:46:19;;;;;;;11.40;3.70;;;8.40;99.90;;;;;;5096733;28;20028;-74
2021/10/28 04:48:44;;;;;;;8.75;4.20;;;8.40;99.90;;;;;;5096526;28;20024;-74
2021/10/28 04:51:10;;;;;;;11.43;4.32;;;8.40;99.90;;;;;;5096862;28;20031;-74
2021/10/28 04:53:36;;;;;;;10.10;4.10;;;8.40;99.90;;;;;;5078461;28;20024;-75
2021/10/28 04:56:02;;;;;;;9.70;4.13;;;8.40;99.90;;;;;;5096717;28;20399;-74
2021/10/28 04:58:27;;;;;;;7.70;3.65;;;8.30;99.90;;;;;;5096619;28;20025;-74
2021/10/28 05:00:53;;;;;;;9.73;3.72;;;8.30;99.90;;;;;;5096645;28;20431;-74
2021/10/28 05:03:19;;;;;;;6.47;3.15;;;8.30;99.90;;;;;;5096565;28;20044;-74
2021/10/28 05:05:45;;;;;;;10.57;3.65;;;8.30;99.90;;;;;;5096604;28;20028;-75
2021/10/28 05:08:10;;;;;;;13.00;4.30;;;8.40;99.90;;;;;;5096486;28;20020;-75
2021/10/28 05:10:39;;;;;;;9.85;4.00;;;8.40;99.90;;;;;;5096317;28;20020;-75
2021/10/28 05:13:04;;;;;;;8.43;3.10;;;8.30;99.90;;;;;;5078358;28;20028;-75
2021/10/28 05:15:30;;;;;;;8.82;3.65;;;8.30;99.90;;;;;;5078022;28;20038;-74
2021/10/28 05:17:56;;;;;;;6.00;3.17;;;8.30;99.90;;;;;;5078104;28;20111;-74
2021/10/28 05:20:21;;;;;;;7.70;3.90;;;8.30;99.90;;;;;;5076847;28;20565;-74
2021/10/28 05:22:47;;;;;;;10.85;4.20;;;8.30;99.90;;;;;;5095691;28;20024;-74
2021/10/28 05:25:12;;;;;;;8.88;3.38;;;8.20;99.90;;;;;;5100480;28;20080;-74
2021/10/28 05:27:38;;;;;;;7.03;2.88;;;8.30;99.90;;;;;;5100821;28;20024;-75
2021/10/28 05:30:04;;;;;;;10.77;3.30;;;8.30;99.90;;;;;;5100704;28;20035;-76
2021/10/28 05:32:31;;;;;;;9.05;3.55;;;8.20;99.90;;;;;;5101309;28;20039;-75
2021/10/28 05:34:59;;;;;;;14.70;3.72;;;8.30;99.90;;;;;;5101369;28;20023;-73
2021/10/28 05:37:26;;;;;;;8.20;3.03;;;8.30;99.90;;;;;;5103417;28;20023;-74
2021/10/28 05:39:52;;;;;;;8.60;3.40;;;8.20;99.90;;;;;;5089204;28;20024;-75
2021/10/28 05:42:18;;;;;;;11.27;4.90;;;8.20;99.90;;;;;;5098705;28;20130;-75
2021/10/28 05:44:44;;;;;;;9.18;3.85;;;8.20;99.90;;;;;;5098165;28;20385;-75
2021/10/28 05:47:10;;;;;;;6.97;3.42;;;8.20;99.90;;;;;;5099071;28;20016;-73
2021/10/28 05:49:35;;;;;;;5.40;3.00;;;8.20;99.90;;;;;;5097207;28;20400;-76
2021/10/28 05:52:01;;;;;;;11.30;4.53;;;8.20;99.90;;;;;;5095655;28;20032;-75
2021/10/28 05:54:27;;;;;;;9.93;3.30;;;8.20;99.90;;;;;;5078768;28;20035;-74
2021/10/28 05:56:52;;;;;;;9.82;3.75;;;8.20;99.90;;;;;;5096121;28;20103;-75
2021/10/28 05:59:18;;;;;;;9.32;3.97;;;8.20;99.90;;;;;;5077813;28;20061;-74
2021/10/28 06:01:43;;;;;;;8.10;3.58;;;8.80;99.90;;;;;;5095492;28;20073;-75
2021/10/28 06:04:09;;;;;;;8.93;3.80;;;8.10;99.90;;;;;;5077392;28;20074;-75
2021/10/28 06:06:34;;;;;;;9.07;3.97;;;8.10;99.90;;;;;;5095917;28;20020;-75
2021/10/28 06:09:00;;;;;;;11.02;3.67;;;8.10;99.90;;;;;;5096288;28;20024;-75
2021/10/28 06:11:26;;;;;;;7.18;3.75;;;8.10;99.90;;;;;;5095966;28;20016;-76
2021/10/28 06:13:52;;;;;;;10.43;4.00;;;8.10;99.90;;;;;;5095845;28;20028;-75
2021/10/28 06:16:17;;;;;;;28.13;4.10;;;8.10;99.90;;;;;;5077645;28;20031;-75
2021/10/28 06:18:43;;;;;;;13.07;3.33;;;8.10;99.90;;;;;;5095220;28;20024;-75
2021/10/28 06:21:11;;;;;;;8.75;3.25;;;8.00;99.90;;;;;;5095317;28;20027;-75
2021/10/28 06:23:38;;;;;;;9.70;3.45;;;8.00;99.90;;;;;;5077063;28;20023;-75
2021/10/28 06:26:04;;;;;;;9.20;4.07;;;8.00;99.90;;;;;;5077024;28;20027;-74
2021/10/28 06:28:30;;;;;;;10.05;4.30;;;7.90;99.90;;;;;;5095179;28;20112;-75
2021/10/28 06:30:56;;;;;;;15.65;5.03;;;7.90;99.90;;;;;;5095366;28;20028;-76
2021/10/28 06:33:25;;;;;;;12.45;3.60;;;7.90;99.90;;;;;;5094585;28;20023;-75
2021/10/28 06:35:50;;;;;;;11.77;4.13;;;7.90;99.90;;;;;;5077038;28;20021;-75
2021/10/28 06:38:16;;;;;;;9.43;4.30;;;7.90;99.90;;;;;;5077046;28;20060;-75
2021/10/28 06:40:41;;;;;;;10.98;4.22;;;7.90;99.90;;;;;;5095207;28;20028;-74
2021/10/28 06:43:08;;;;;;;10.07;4.30;;;7.90;99.90;;;;;;5077431;28;20020;-74
2021/10/28 06:45:34;;;;;;;14.02;4.43;;;7.90;99.90;;;;;;5076326;28;20476;-75
2021/10/28 06:48:00;;;;;;;15.85;4.85;;;7.90;99.90;;;;;;5094554;28;20065;-74
2021/10/28 06:50:34;;;;;;;8.98;4.03;;;7.90;99.90;;;;;;5076350;28;20032;-74
2021/10/28 06:53:09;;;;;;;9.63;4.22;;;7.90;99.90;;;;;;5094977;28;20024;-77
2021/10/28 07:03:47;;;;;;;12.57;4.20;;;8.00;99.90;;;;;;5094152;28;20073;-74
2021/10/28 07:06:15;;;;;;;11.98;4.30;;;8.00;99.90;;;;;;5093899;28;20039;-74
2021/10/28 07:08:46;;;;;;;9.70;4.38;;;8.10;99.90;;;;;;5088491;28;20412;-74
2021/10/28 07:11:17;;;;;;;14.13;4.80;;;8.10;99.90;;;;;;5095757;28;20013;-74
2021/10/28 07:13:46;;;;;;;9.90;4.68;;;8.10;99.90;;;;;;5082830;28;20024;-74
2021/10/28 07:16:18;;;;;;;11.52;4.90;;;8.20;99.90;;;;;;5090613;28;20038;-74
2021/10/28 07:22:13;;;;;;;11.85;4.13;;;8.30;99.90;;;;;;5099963;28;20028;-75
2021/10/28 07:27:30;;;;;;;15.20;3.85;;;8.50;99.90;;;;;;5099789;28;19904;-75
2021/10/28 08:13:45;;;;;;;9.43;3.63;;;9.90;99.90;;;;;;5099567;28;20043;-74
2021/10/28 08:19:02;;;;;;;12.25;4.88;;;10.10;99.90;;;;;;5099465;28;20035;-73
2021/10/28 08:21:32;;;;;;;13.23;4.75;;;10.20;99.90;;;;;;5098104;28;20032;-73
2021/10/28 08:29:37;;;;;;;12.13;4.50;;;10.50;99.90;;;;;;5081245;28;20090;-72
2021/10/28 08:32:05;;;;;;;10.85;4.65;;;10.60;99.90;;;;;;5082785;28;20032;-73
2021/10/28 08:34:34;;;;;;;9.83;4.40;;;10.70;99.90;;;;;;5081484;28;20024;-73
2021/10/28 08:37:13;;;;;;;9.05;4.95;;;10.80;99.90;;;;;;5082665;28;20265;-73
2021/10/28 08:39:47;;;;;;;9.73;4.15;;;10.90;99.90;;;;;;5100272;28;20024;-75
2021/10/28 08:42:15;;;;;;;13.45;5.70;;;10.90;99.90;;;;;;5080066;28;20019;-75
2021/10/28 08:44:46;;;;;;;11.67;4.43;;;11.00;99.90;;;;;;5098089;28;20039;-74
2021/10/28 08:47:12;;;;;;;14.57;4.85;;;11.00;99.90;;;;;;5098552;28;20113;-74
2021/10/28 08:49:52;;;;;;;13.50;4.70;;;11.10;99.90;;;;;;5097654;28;20032;-74
2021/10/28 08:55:30;;;;;;;15.30;5.22;;;11.20;99.90;;;;;;5028354;28;20177;-74
2021/10/28 09:25:35;;;;;;;13.05;5.60;;;12.00;99.90;;;;;;5097203;28;20059;-74
2021/10/28 09:30:54;;;;;;;11.50;4.30;;;12.10;99.90;;;;;;5097221;28;20068;-75
2021/10/28 09:33:48;;;;;;;12.13;5.05;;;12.20;99.90;;;;;;5093738;28;20028;-74
2021/10/28 09:50:52;;;;;;;10.50;4.60;;;12.80;99.90;;;;;;5083656;28;20036;-74
2021/10/28 09:58:33;;;;;;;12.95;5.05;;;13.00;99.90;;;;;;5096784;28;20027;-74
2021/10/28 10:01:01;;;;;;;12.18;5.07;;;13.10;99.90;;;;;;5096282;28;20032;-74
2021/10/28 10:03:34;;;;;;;12.27;5.03;;;13.20;99.90;;;;;;5080525;28;20030;-74
2021/10/28 10:06:12;;;;;;;17.10;5.80;;;13.20;99.90;;;;;;5096723;28;20020;-74
2021/10/28 10:08:38;;;;;;;10.88;4.70;;;13.30;99.90;;;;;;5096018;28;20024;-74
2021/10/28 10:11:04;;;;;;;10.88;5.28;;;13.30;99.90;;;;;;5088352;28;20024;-74
2021/10/28 10:13:30;;;;;;;10.15;4.20;;;13.50;99.90;;;;;;5097468;28;20028;-75
2021/10/28 10:16:01;;;;;;;10.88;4.13;;;13.60;99.90;;;;;;5079050;28;20040;-74
2021/10/28 10:18:38;;;;;;;9.38;3.65;;;13.60;99.90;;;;;;5096602;28;20488;-74
2021/10/28 10:21:10;;;;;;;10.52;4.55;;;13.80;99.90;;;;;;5096034;28;20404;-74
2021/10/28 12:44:58;;;;;;;3.95;1.52;;;18.30;99.90;;;;;;5103507;28;20042;-78
2021/10/28 12:47:46;;;;;;;7.32;2.58;;;18.30;99.90;;;;;;5102339;28;20149;-77
2021/10/28 12:53:03;;;;;;;3.15;1.23;;;18.30;99.90;;;;;;5102608;28;20380;-77
2021/10/28 14:36:58;;;;;;;2.25;0.47;;;21.70;70.20;;;;;;5100507;28;20027;-77
2021/10/28 15:28:12;;;;;;;1.50;0.47;;;16.70;97.50;;;;;;5099431;28;20405;-77
2021/10/28 15:47:19;;;;;;;1.85;0.40;;;15.80;99.90;;;;;;5093783;28;20468;-73
2021/10/28 15:54:56;;;;;;;1.45;0.30;;;15.30;99.90;;;;;;5098363;28;20436;-74
2021/10/28 16:24:14;;;;;;;2.25;1.25;;;14.30;99.90;;;;;;5098405;28;20032;-74
2021/10/28 16:26:39;;;;;;;1.33;0.45;;;14.30;99.90;;;;;;5097556;28;20503;-74
2021/10/28 16:29:07;;;;;;;4.40;0.45;;;14.20;99.90;;;;;;5096181;28;20035;-74
2021/10/28 16:31:36;;;;;;;2.75;0.60;;;14.10;99.90;;;;;;5096208;28;20016;-74
2021/10/28 16:34:03;;;;;;;3.10;0.70;;;14.10;99.90;;;;;;5097627;28;20024;-74
2021/10/28 16:36:29;;;;;;;4.35;0.73;;;14.00;99.90;;;;;;5096121;28;20030;-74
2021/10/28 16:38:55;;;;;;;1.70;0.93;;;13.90;99.90;;;;;;5097731;28;20047;-74
2021/10/28 16:41:21;;;;;;;6.20;1.00;;;13.80;99.90;;;;;;5097723;28;20488;-74
2021/10/28 16:43:47;;;;;;;2.67;0.77;;;13.70;99.90;;;;;;5097649;28;20012;-74
2021/10/28 16:46:12;;;;;;;4.03;0.70;;;13.60;99.90;;;;;;5096524;28;20027;-74
2021/10/28 16:48:39;;;;;;;7.15;1.73;;;13.50;99.90;;;;;;5096966;28;20017;-74
2021/10/28 16:51:06;;;;;;;2.03;0.65;;;13.40;99.90;;;;;;5096280;28;20031;-74
2021/10/28 16:53:32;;;;;;;2.90;0.68;;;13.40;99.90;;;;;;5097404;28;20019;-74
2021/10/28 16:55:58;;;;;;;3.05;0.98;;;13.30;99.90;;;;;;5096224;28;20021;-74
2021/10/28 16:58:24;;;;;;;2.60;1.08;;;13.20;99.90;;;;;;5098032;28;20031;-74
2021/10/28 17:00:50;;;;;;;2.65;0.70;;;13.20;99.90;;;;;;5096638;28;20028;-74
2021/10/28 17:03:16;;;;;;;6.82;1.15;;;13.10;99.90;;;;;;5096167;28;20028;-74
2021/10/28 17:05:43;;;;;;;3.55;1.02;;;13.10;99.90;;;;;;5097288;28;20111;-72
2021/10/28 17:08:09;;;;;;;4.30;1.27;;;13.10;99.90;;;;;;5096902;28;20359;-74
2021/10/28 17:10:35;;;;;;;3.72;1.25;;;13.00;99.90;;;;;;5091906;28;20012;-74
2021/10/28 17:13:00;;;;;;;5.80;1.30;;;13.00;99.90;;;;;;5091891;28;20030;-74
2021/10/28 17:15:26;;;;;;;3.20;1.08;;;12.90;99.90;;;;;;5078144;28;20020;-73
2021/10/28 17:17:52;;;;;;;5.03;1.17;;;12.80;99.90;;;;;;5082937;28;20044;-73
2021/10/28 17:20:19;;;;;;;3.55;1.40;;;12.80;99.90;;;;;;5082757;28;20032;-75
2021/10/28 17:22:44;;;;;;;3.92;1.88;;;12.80;99.90;;;;;;5086948;28;20538;-73
2021/10/28 17:25:18;;;;;;;3.28;1.77;;;12.70;99.90;;;;;;5099916;28;20016;-73
2021/10/28 17:27:46;;;;;;;6.63;1.17;;;12.70;99.90;;;;;;5101360;28;20027;-73
2021/10/28 17:30:13;;;;;;;8.07;1.48;;;12.60;99.90;;;;;;5102012;28;20021;-73
2021/10/28 17:32:41;;;;;;;2.70;0.90;;;12.60;99.90;;;;;;5101461;28;20161;-73
2021/10/28 17:35:07;;;;;;;2.03;1.17;;;12.60;99.90;;;;;;5100614;28;20419;-73
2021/10/28 17:37:33;;;;;;;2.05;0.90;;;12.50;99.90;;;;;;5100680;28;20378;-73
2021/10/28 17:39:58;;;;;;;3.45;1.13;;;12.50;99.90;;;;;;5100618;28;20115;-73
2021/10/28 17:42:24;;;;;;;3.20;0.70;;;12.50;99.90;;;;;;5084957;28;20435;-73
2021/10/28 17:44:53;;;;;;;3.58;0.90;;;12.50;99.90;;;;;;5099482;28;20358;-73
2021/10/28 17:47:19;;;;;;;;;;;12.40;99.90;;;;;;5101980;28;20013;-73
2021/10/28 17:49:45;;;;;;;3.15;0.75;;;12.40;99.90;;;;;;5084265;28;19915;-73
2021/10/28 17:52:11;;;;;;;2.42;0.70;;;12.40;99.90;;;;;;5099798;28;20430;-73
2021/10/28 17:54:38;;;;;;;4.38;1.83;;;12.40;99.90;;;;;;5099972;28;20427;-73
2021/10/28 17:57:05;;;;;;;6.00;1.67;;;12.40;99.90;;;;;;5098406;28;20024;-76
2021/10/28 17:59:31;;;;;;;4.63;1.60;;;12.30;99.90;;;;;;5080769;28;20074;-73
2021/10/28 18:01:57;;;;;;;2.40;0.98;;;12.30;99.90;;;;;;5100591;28;20059;-73
2021/10/28 18:04:23;;;;;;;3.42;0.80;;;12.30;99.90;;;;;;5099768;28;20028;-73
2021/10/28 18:06:50;;;;;;;2.90;1.08;;;12.30;99.90;;;;;;5099822;28;20103;-73
2021/10/28 18:09:17;;;;;;;4.95;0.93;;;12.30;99.90;;;;;;5098478;28;20031;-73
2021/10/28 18:11:43;;;;;;;4.35;1.77;;;12.30;99.90;;;;;;5099874;28;20055;-73
2021/10/28 18:14:15;;;;;;;5.18;1.30;;;12.30;99.90;;;;;;5099621;28;20361;-73
2021/10/28 18:16:41;;;;;;;5.75;1.58;;;12.30;99.90;;;;;;5100060;28;20461;-73
2021/10/28 18:19:08;;;;;;;3.65;0.98;;;12.30;99.90;;;;;;5096412;28;20087;-73
2021/10/28 18:21:37;;;;;;;6.78;2.47;;;12.30;99.90;;;;;;5081885;28;20035;-73
2021/10/28 18:24:03;;;;;;;5.35;1.65;;;12.30;99.90;;;;;;5100025;28;20022;-73
2021/10/28 18:26:29;;;;;;;6.78;1.45;;;12.20;99.90;;;;;;5094171;28;20038;-73
2021/10/28 18:28:56;;;;;;;3.17;0.77;;;12.20;99.90;;;;;;5094589;28;20032;-73
2021/10/28 18:31:23;;;;;;;4.93;0.95;;;12.20;99.90;;;;;;5099643;28;20108;-73
2021/10/28 18:33:49;;;;;;;5.70;1.25;;;12.20;99.90;;;;;;5099409;28;20352;-73
2021/10/28 18:36:17;;;;;;;3.03;1.08;;;12.20;99.90;;;;;;5081520;28;20119;-73
2021/10/28 18:38:45;;;;;;;4.43;1.30;;;12.10;99.90;;;;;;5081886;28;20024;-73
2021/10/28 18:41:16;;;;;;;3.15;1.73;;;12.10;99.90;;;;;;5099601;28;20024;-73
2021/10/28 18:43:46;;;;;;;3.88;1.00;;;12.10;99.90;;;;;;5098131;28;20111;-73
2021/10/28 18:46:21;;;;;;;3.88;1.08;;;12.10;99.90;;;;;;5099481;28;20016;-73
2021/10/28 18:48:51;;;;;;;4.40;1.10;;;12.00;99.90;;;;;;5097734;28;20051;-73
2021/10/28 18:51:17;;;;;;;4.35;1.55;;;12.00;99.90;;;;;;5095170;28;20028;-73
2021/10/28 18:53:45;;;;;;;3.58;1.60;;;12.00;99.90;;;;;;5098835;28;20046;-73
2021/10/28 18:56:12;;;;;;;5.73;1.90;;;12.00;99.90;;;;;;5098946;28;20032;-73
2021/10/28 18:58:38;;;;;;;5.28;2.22;;;12.00;99.90;;;;;;5095830;28;20031;-73
2021/10/28 19:01:04;;;;;;;1.60;1.02;;;12.00;99.90;;;;;;5097438;28;20028;-73
2021/10/28 19:03:30;;;;;;;3.75;1.50;;;12.00;99.90;;;;;;5096520;28;20024;-73
2021/10/28 19:05:57;;;;;;;5.55;1.42;;;12.00;99.90;;;;;;5097416;28;20477;-73
2021/10/28 19:08:24;;;;;;;4.88;1.10;;;12.00;99.90;;;;;;5096063;28;20028;-73
2021/10/28 19:10:50;;;;;;;3.88;1.38;;;11.90;99.90;;;;;;5099478;28;20024;-73
2021/10/28 19:13:17;;;;;;;2.95;1.30;;;11.90;99.90;;;;;;5099265;28;20058;-73
2021/10/28 19:15:43;;;;;;;4.82;1.08;;;11.90;99.90;;;;;;5098910;28;20075;-73
2021/10/28 19:18:09;;;;;;;4.60;1.40;;;11.80;99.90;;;;;;5097517;28;20050;-73
2021/10/28 19:20:35;;;;;;;4.43;1.45;;;11.80;99.90;;;;;;5099258;28;20028;-74
2021/10/28 19:23:01;;;;;;;3.05;1.08;;;11.80;99.90;;;;;;5099258;28;20085;-74
2021/10/28 19:25:27;;;;;;;2.72;1.38;;;11.80;99.90;;;;;;5099214;28;20023;-74
2021/10/28 19:27:56;;;;;;;6.97;2.08;;;11.80;99.90;;;;;;5097913;28;20024;-73
2021/10/28 19:30:30;;;;;;;2.47;1.13;;;11.80;99.90;;;;;;5097400;28;20028;-73
2021/10/28 19:33:05;;;;;;;2.97;1.30;;;11.80;99.90;;;;;;5081516;28;20052;-73
2021/10/28 19:35:31;;;;;;;7.65;1.58;;;11.70;99.90;;;;;;5096498;28;20078;-73
2021/10/28 19:38:29;;;;;;;4.90;0.73;;;11.70;99.90;;;;;;5076678;28;20073;-73
2021/10/28 19:46:10;;;;;;;7.22;2.03;;;11.50;99.90;;;;;;5098543;28;20503;-73
2021/10/28 19:48:38;;;;;;;2.90;1.20;;;11.60;99.90;;;;;;5098570;28;20073;-73
2021/10/28 19:51:04;;;;;;;6.22;1.80;;;11.60;99.90;;;;;;5096792;28;20047;-73
2021/10/28 19:53:32;;;;;;;4.32;1.73;;;11.50;99.90;;;;;;5098099;28;20469;-73
2021/10/28 19:56:08;;;;;;;6.40;1.88;;;11.50;99.90;;;;;;5097449;28;20024;-72
2021/10/28 19:58:40;;;;;;;3.20;1.33;;;11.50;99.90;;;;;;5098310;28;20511;-73
2021/10/28 20:01:24;;;;;;;2.42;1.00;;;11.50;99.90;;;;;;5093085;28;20020;-73
2021/10/28 20:22:26;;;;;;;5.68;2.22;;;11.50;99.90;;;;;;5097663;28;20035;-73
2021/10/28 20:24:52;;;;;;;3.42;1.60;;;11.40;99.90;;;;;;5099487;28;20035;-75
2021/10/28 20:27:17;;;;;;;4.88;2.10;;;11.40;99.90;;;;;;5079564;28;20020;-74
2021/10/28 20:29:43;;;;;;;4.10;1.60;;;11.30;99.90;;;;;;5080185;28;20047;-74
2021/10/28 20:32:09;;;;;;;4.80;1.98;;;11.30;99.90;;;;;;5098225;28;20114;-74
2021/10/28 20:34:38;;;;;;;3.95;1.85;;;11.20;99.90;;;;;;5098272;28;20031;-77
2021/10/28 20:37:11;;;;;;;;;;;11.30;99.90;;;;;;5080904;28;20103;-76
2021/10/28 20:39:42;;;;;;;10.52;2.25;;;11.30;99.90;;;;;;5097750;28;19908;-76
2021/10/28 20:42:09;;;;;;;3.90;1.75;;;11.40;99.90;;;;;;5095165;28;20047;-76
2021/10/28 20:44:35;;;;;;;5.13;1.75;;;11.30;99.90;;;;;;5092894;28;20035;-76
2021/10/28 20:47:02;;;;;;;8.25;2.42;;;11.30;99.90;;;;;;5092973;28;20024;-76
2021/10/28 20:49:28;;;;;;;8.57;2.33;;;11.30;99.90;;;;;;5089017;28;20437;-76
2021/10/28 20:51:53;;;;;;;6.03;2.25;;;11.30;99.90;;;;;;5094913;28;20016;-76
2021/10/28 20:54:21;;;;;;;6.30;1.92;;;11.30;99.90;;;;;;5096727;28;20032;-75
2021/10/28 20:56:49;;;;;;;4.07;1.85;;;11.30;99.90;;;;;;5097618;28;20031;-77
2021/10/28 20:59:15;;;;;;;6.50;2.53;;;11.30;99.90;;;;;;5100689;28;20464;-79
2021/10/28 21:01:41;;;;;;;4.32;1.85;;;11.30;99.90;;;;;;5079725;28;20020;-78
2021/10/28 21:04:07;;;;;;;4.20;1.90;;;11.30;99.90;;;;;;5088000;28;20046;-77
2021/10/28 21:06:35;;;;;;;5.57;2.30;;;11.30;99.90;;;;;;5101684;28;20020;-75
2021/10/28 21:09:02;;;;;;;4.88;2.30;;;11.20;99.90;;;;;;5102208;28;20024;-75
2021/10/28 21:11:27;;;;;;;5.78;2.10;;;11.30;99.90;;;;;;5101348;28;20548;-75
2021/10/28 21:13:53;;;;;;;4.35;2.50;;;11.30;99.90;;;;;;5101286;28;20070;-75
2021/10/28 21:16:19;;;;;;;7.95;3.00;;;11.20;99.90;;;;;;5099632;28;20020;-75
2021/10/28 21:18:45;;;;;;;7.13;2.15;;;11.20;99.90;;;;;;5098782;28;20028;-77
2021/10/28 21:21:11;;;;;;;6.15;2.22;;;11.20;99.90;;;;;;5084947;28;20447;-78
2021/10/28 21:23:36;;;;;;;7.82;2.53;;;11.20;99.90;;;;;;5083610;28;20043;-78
2021/10/28 21:26:02;;;;;;;5.13;2.55;;;11.20;99.90;;;;;;5102435;28;20027;-80
2021/10/28 21:28:28;;;;;;;5.32;2.30;;;11.10;99.90;;;;;;5102082;28;20020;-78
2021/10/28 21:30:54;;;;;;;5.65;2.55;;;11.00;99.90;;;;;;5103510;28;20020;-78
2021/10/28 21:33:19;;;;;;;5.63;2.38;;;11.10;99.90;;;;;;5102827;28;20024;-78
2021/10/28 21:35:45;;;;;;;7.15;2.72;;;11.00;99.90;;;;;;5099685;28;20024;-77
2021/10/28 21:38:11;;;;;;;6.35;3.60;;;11.00;99.90;;;;;;5100152;28;20024;-77
2021/10/28 21:40:36;;;;;;;6.93;2.50;;;11.00;99.90;;;;;;5101494;28;20028;-78
2021/10/28 21:43:03;;;;;;;7.72;2.58;;;11.00;99.90;;;;;;5083847;28;20016;-78
2021/10/28 21:45:30;;;;;;;4.20;2.60;;;11.00;99.90;;;;;;5101092;28;20008;-77
2021/10/28 21:47:55;;;;;;;7.07;3.10;;;11.00;99.90;;;;;;5100916;28;20024;-78
2021/10/28 21:50:21;;;;;;;4.38;2.28;;;11.00;99.90;;;;;;5100436;28;20169;-77
2021/10/28 21:52:56;;;;;;;7.85;2.88;;;11.00;99.90;;;;;;5099116;28;20471;-77